sensor_id;sensor_type;location;lat;lon;timestamp;P1;durP1;ratioP1;P2;durP2;ratioP2
39050;SDS011;24805;55.852;37.644;2024-01-15T00:00:21;11.18;;;5.07;;
39050;SDS011;24805;55.852;37.644;2024-01-15T00:05:23;10.70;;;5.47;;
39050;SDS011;24805;55.852;37.644;2024-01-15T00:10:26;14.07;;;6.47;;
39050;SDS011;24805;55.852;37.644;2024-01-15T00:15:28;13.23;;;6.88;;
39050;SDS011;24805;55.852;37.644;2024-01-15T00:20:32;13.80;;;7.35;;
39050;SDS011;24805;55.852;37.644;2024-01-15T00:25:34;16.20;;;7.47;;
39050;SDS011;24805;55.852;37.644;2024-01-15T00:30:36;12.27;;;4.38;;
39050;SDS011;24805;55.852;37.644;2024-01-15T00:35:39;14.80;;;5.57;;
39050;SDS011;24805;55.852;37.644;2024-01-15T00:40:41;17.25;;;8.48;;
39050;SDS011;24805;55.852;37.644;2024-01-15T00:45:43;9.95;;;5.07;;
39050;SDS011;24805;55.852;37.644;2024-01-15T00:50:46;14.20;;;7.18;;
39050;SDS011;24805;55.852;37.644;2024-01-15T00:55:48;13.00;;;6.82;;
39050;SDS011;24805;55.852;37.644;2024-01-15T01:00:51;13.95;;;7.38;;
39050;SDS011;24805;55.852;37.644;2024-01-15T01:05:53;15.38;;;7.07;;
39050;SDS011;24805;55.852;37.644;2024-01-15T01:10:55;14.23;;;6.75;;
39050;SDS011;24805;55.852;37.644;2024-01-15T01:15:58;14.90;;;6.25;;
39050;SDS011;24805;55.852;37.644;2024-01-15T01:21:00;11.25;;;6.20;;
39050;SDS011;24805;55.852;37.644;2024-01-15T01:26:03;13.85;;;7.28;;
39050;SDS011;24805;55.852;37.644;2024-01-15T01:31:05;18.10;;;7.05;;
39050;SDS011;24805;55.852;37.644;2024-01-15T01:36:08;11.57;;;6.13;;
39050;SDS011;24805;55.852;37.644;2024-01-15T01:41:14;16.25;;;8.38;;
39050;SDS011;24805;55.852;37.644;2024-01-15T01:46:17;14.63;;;8.32;;
39050;SDS011;24805;55.852;37.644;2024-01-15T01:51:19;14.77;;;7.95;;
39050;SDS011;24805;55.852;37.644;2024-01-15T01:56:23;17.20;;;8.40;;
39050;SDS011;24805;55.852;37.644;2024-01-15T02:01:26;7.80;;;3.92;;
39050;SDS011;24805;55.852;37.644;2024-01-15T02:06:28;15.77;;;7.88;;
39050;SDS011;24805;55.852;37.644;2024-01-15T02:11:31;15.30;;;7.35;;
39050;SDS011;24805;55.852;37.644;2024-01-15T02:16:33;16.20;;;8.30;;
39050;SDS011;24805;55.852;37.644;2024-01-15T02:21:35;15.95;;;7.40;;
39050;SDS011;24805;55.852;37.644;2024-01-15T02:26:42;17.25;;;8.70;;
39050;SDS011;24805;55.852;37.644;2024-01-15T02:31:44;15.80;;;8.32;;
39050;SDS011;24805;55.852;37.644;2024-01-15T02:36:47;14.75;;;8.55;;
39050;SDS011;24805;55.852;37.644;2024-01-15T02:41:49;13.60;;;7.18;;
39050;SDS011;24805;55.852;37.644;2024-01-15T02:46:52;10.40;;;2.78;;
39050;SDS011;24805;55.852;37.644;2024-01-15T02:51:54;15.30;;;7.93;;
39050;SDS011;24805;55.852;37.644;2024-01-15T02:56:57;14.40;;;8.70;;
39050;SDS011;24805;55.852;37.644;2024-01-15T03:01:59;16.88;;;9.10;;
39050;SDS011;24805;55.852;37.644;2024-01-15T03:07:01;15.55;;;8.07;;
39050;SDS011;24805;55.852;37.644;2024-01-15T03:12:04;15.93;;;8.60;;
39050;SDS011;24805;55.852;37.644;2024-01-15T03:17:06;15.45;;;7.50;;
39050;SDS011;24805;55.852;37.644;2024-01-15T03:22:11;17.65;;;9.60;;
39050;SDS011;24805;55.852;37.644;2024-01-15T03:27:13;19.65;;;9.82;;
39050;SDS011;24805;55.852;37.644;2024-01-15T03:32:15;16.73;;;8.10;;
39050;SDS011;24805;55.852;37.644;2024-01-15T03:37:18;17.83;;;8.85;;
39050;SDS011;24805;55.852;37.644;2024-01-15T03:42:21;16.90;;;9.10;;
39050;SDS011;24805;55.852;37.644;2024-01-15T03:47:23;16.75;;;8.40;;
39050;SDS011;24805;55.852;37.644;2024-01-15T03:52:26;18.13;;;9.05;;
39050;SDS011;24805;55.852;37.644;2024-01-15T03:57:28;17.95;;;9.52;;
39050;SDS011;24805;55.852;37.644;2024-01-15T04:02:30;15.90;;;8.68;;
39050;SDS011;24805;55.852;37.644;2024-01-15T04:07:32;15.90;;;7.80;;
39050;SDS011;24805;55.852;37.644;2024-01-15T04:12:35;13.18;;;7.68;;
39050;SDS011;24805;55.852;37.644;2024-01-15T04:17:37;15.15;;;8.05;;
39050;SDS011;24805;55.852;37.644;2024-01-15T04:22:40;12.93;;;8.20;;
39050;SDS011;24805;55.852;37.644;2024-01-15T04:27:42;16.05;;;8.15;;
39050;SDS011;24805;55.852;37.644;2024-01-15T04:32:44;18.70;;;9.93;;
39050;SDS011;24805;55.852;37.644;2024-01-15T04:37:47;16.58;;;10.63;;
39050;SDS011;24805;55.852;37.644;2024-01-15T04:42:49;18.45;;;8.48;;
39050;SDS011;24805;55.852;37.644;2024-01-15T04:47:51;20.48;;;11.65;;
39050;SDS011;24805;55.852;37.644;2024-01-15T04:52:54;12.63;;;8.63;;
39050;SDS011;24805;55.852;37.644;2024-01-15T04:57:56;23.38;;;10.05;;
39050;SDS011;24805;55.852;37.644;2024-01-15T05:02:58;19.92;;;10.20;;
39050;SDS011;24805;55.852;37.644;2024-01-15T05:08:01;9.40;;;5.35;;
39050;SDS011;24805;55.852;37.644;2024-01-15T05:13:03;20.00;;;11.43;;
39050;SDS011;24805;55.852;37.644;2024-01-15T05:18:05;17.08;;;9.30;;
39050;SDS011;24805;55.852;37.644;2024-01-15T05:23:08;20.00;;;10.95;;
39050;SDS011;24805;55.852;37.644;2024-01-15T05:28:11;20.95;;;9.63;;
39050;SDS011;24805;55.852;37.644;2024-01-15T05:33:13;18.27;;;10.30;;
39050;SDS011;24805;55.852;37.644;2024-01-15T05:38:16;23.08;;;11.85;;
39050;SDS011;24805;55.852;37.644;2024-01-15T05:43:19;20.05;;;10.88;;
39050;SDS011;24805;55.852;37.644;2024-01-15T05:48:21;19.42;;;10.88;;
39050;SDS011;24805;55.852;37.644;2024-01-15T05:53:24;13.90;;;8.32;;
39050;SDS011;24805;55.852;37.644;2024-01-15T05:58:27;18.83;;;10.55;;
39050;SDS011;24805;55.852;37.644;2024-01-15T06:03:29;25.17;;;10.60;;
39050;SDS011;24805;55.852;37.644;2024-01-15T06:08:31;22.60;;;13.05;;
39050;SDS011;24805;55.852;37.644;2024-01-15T06:13:34;23.65;;;12.77;;
39050;SDS011;24805;55.852;37.644;2024-01-15T06:18:36;19.73;;;11.23;;
39050;SDS011;24805;55.852;37.644;2024-01-15T06:23:39;20.38;;;11.43;;
39050;SDS011;24805;55.852;37.644;2024-01-15T06:28:41;21.65;;;11.52;;
39050;SDS011;24805;55.852;37.644;2024-01-15T06:33:43;21.67;;;10.70;;
39050;SDS011;24805;55.852;37.644;2024-01-15T06:38:49;22.98;;;12.32;;
39050;SDS011;24805;55.852;37.644;2024-01-15T06:43:51;21.48;;;12.32;;
39050;SDS011;24805;55.852;37.644;2024-01-15T06:48:54;19.45;;;12.48;;
39050;SDS011;24805;55.852;37.644;2024-01-15T06:53:56;21.55;;;12.93;;
39050;SDS011;24805;55.852;37.644;2024-01-15T06:58:59;20.80;;;11.07;;
39050;SDS011;24805;55.852;37.644;2024-01-15T07:04:01;23.00;;;12.05;;
39050;SDS011;24805;55.852;37.644;2024-01-15T07:09:03;24.27;;;12.35;;
39050;SDS011;24805;55.852;37.644;2024-01-15T07:14:06;18.85;;;10.65;;
39050;SDS011;24805;55.852;37.644;2024-01-15T07:19:08;23.08;;;12.75;;
39050;SDS011;24805;55.852;37.644;2024-01-15T07:24:10;23.80;;;13.02;;
39050;SDS011;24805;55.852;37.644;2024-01-15T07:29:13;21.65;;;12.15;;
39050;SDS011;24805;55.852;37.644;2024-01-15T07:34:15;20.55;;;12.57;;
39050;SDS011;24805;55.852;37.644;2024-01-15T07:39:18;20.60;;;11.43;;
39050;SDS011;24805;55.852;37.644;2024-01-15T07:44:21;22.98;;;11.43;;
39050;SDS011;24805;55.852;37.644;2024-01-15T07:49:23;25.10;;;13.45;;
39050;SDS011;24805;55.852;37.644;2024-01-15T07:54:26;20.90;;;12.32;;
39050;SDS011;24805;55.852;37.644;2024-01-15T07:59:28;21.35;;;11.32;;
39050;SDS011;24805;55.852;37.644;2024-01-15T08:04:31;21.33;;;12.75;;
39050;SDS011;24805;55.852;37.644;2024-01-15T08:09:33;24.45;;;13.27;;
39050;SDS011;24805;55.852;37.644;2024-01-15T08:14:36;23.25;;;12.35;;
39050;SDS011;24805;55.852;37.644;2024-01-15T08:19:38;23.73;;;14.23;;
39050;SDS011;24805;55.852;37.644;2024-01-15T08:24:44;14.70;;;7.10;;
39050;SDS011;24805;55.852;37.644;2024-01-15T08:29:46;22.42;;;13.95;;
39050;SDS011;24805;55.852;37.644;2024-01-15T08:34:49;18.85;;;9.68;;
39050;SDS011;24805;55.852;37.644;2024-01-15T08:39:54;21.73;;;14.23;;
39050;SDS011;24805;55.852;37.644;2024-01-15T08:44:57;21.98;;;13.52;;
39050;SDS011;24805;55.852;37.644;2024-01-15T08:49:59;24.13;;;13.93;;
39050;SDS011;24805;55.852;37.644;2024-01-15T08:55:03;25.13;;;15.50;;
39050;SDS011;24805;55.852;37.644;2024-01-15T09:00:06;20.90;;;12.60;;
39050;SDS011;24805;55.852;37.644;2024-01-15T09:05:12;25.58;;;14.38;;
39050;SDS011;24805;55.852;37.644;2024-01-15T09:10:14;16.20;;;8.65;;
39050;SDS011;24805;55.852;37.644;2024-01-15T09:15:18;24.27;;;14.27;;
39050;SDS011;24805;55.852;37.644;2024-01-15T09:20:21;20.63;;;11.90;;
39050;SDS011;24805;55.852;37.644;2024-01-15T09:25:24;23.20;;;12.60;;
39050;SDS011;24805;55.852;37.644;2024-01-15T09:30:27;26.45;;;14.77;;
39050;SDS011;24805;55.852;37.644;2024-01-15T09:35:29;23.77;;;14.30;;
39050;SDS011;24805;55.852;37.644;2024-01-15T09:40:32;22.95;;;12.60;;
39050;SDS011;24805;55.852;37.644;2024-01-15T09:45:38;22.58;;;13.82;;
39050;SDS011;24805;55.852;37.644;2024-01-15T09:51:01;21.92;;;12.30;;
39050;SDS011;24805;55.852;37.644;2024-01-15T09:56:04;25.33;;;14.52;;
39050;SDS011;24805;55.852;37.644;2024-01-15T10:06:29;23.20;;;14.32;;
39050;SDS011;24805;55.852;37.644;2024-01-15T10:11:33;25.17;;;14.73;;
39050;SDS011;24805;55.852;37.644;2024-01-15T10:16:35;25.23;;;15.15;;
39050;SDS011;24805;55.852;37.644;2024-01-15T10:21:39;24.17;;;15.23;;
39050;SDS011;24805;55.852;37.644;2024-01-15T10:26:41;24.67;;;12.93;;
39050;SDS011;24805;55.852;37.644;2024-01-15T10:31:44;29.90;;;15.48;;
39050;SDS011;24805;55.852;37.644;2024-01-15T10:36:46;23.67;;;13.65;;
39050;SDS011;24805;55.852;37.644;2024-01-15T10:41:57;28.83;;;14.70;;
39050;SDS011;24805;55.852;37.644;2024-01-15T10:46:59;23.88;;;13.63;;
39050;SDS011;24805;55.852;37.644;2024-01-15T10:52:02;20.05;;;11.93;;
39050;SDS011;24805;55.852;37.644;2024-01-15T10:57:05;23.95;;;13.40;;
39050;SDS011;24805;55.852;37.644;2024-01-15T11:02:08;15.00;;;9.00;;
39050;SDS011;24805;55.852;37.644;2024-01-15T11:07:12;25.95;;;11.68;;
39050;SDS011;24805;55.852;37.644;2024-01-15T11:12:16;23.55;;;12.20;;
39050;SDS011;24805;55.852;37.644;2024-01-15T11:17:22;22.20;;;12.00;;
39050;SDS011;24805;55.852;37.644;2024-01-15T11:28:06;26.50;;;15.27;;
39050;SDS011;24805;55.852;37.644;2024-01-15T11:33:01;25.38;;;13.82;;
39050;SDS011;24805;55.852;37.644;2024-01-15T11:38:04;24.02;;;14.60;;
39050;SDS011;24805;55.852;37.644;2024-01-15T11:43:07;31.10;;;15.65;;
39050;SDS011;24805;55.852;37.644;2024-01-15T11:53:32;26.50;;;15.20;;
39050;SDS011;24805;55.852;37.644;2024-01-15T11:58:38;23.65;;;13.38;;
39050;SDS011;24805;55.852;37.644;2024-01-15T12:03:40;23.00;;;12.52;;
39050;SDS011;24805;55.852;37.644;2024-01-15T12:08:43;22.00;;;12.25;;
39050;SDS011;24805;55.852;37.644;2024-01-15T12:13:45;22.95;;;13.25;;
39050;SDS011;24805;55.852;37.644;2024-01-15T12:18:47;28.40;;;13.38;;
39050;SDS011;24805;55.852;37.644;2024-01-15T12:23:50;23.10;;;13.25;;
39050;SDS011;24805;55.852;37.644;2024-01-15T12:28:54;22.60;;;12.70;;
39050;SDS011;24805;55.852;37.644;2024-01-15T12:33:58;21.05;;;11.32;;
39050;SDS011;24805;55.852;37.644;2024-01-15T12:39:01;21.48;;;11.77;;
39050;SDS011;24805;55.852;37.644;2024-01-15T12:44:03;23.25;;;12.77;;
39050;SDS011;24805;55.852;37.644;2024-01-15T12:49:07;23.50;;;13.13;;
39050;SDS011;24805;55.852;37.644;2024-01-15T12:54:10;22.60;;;13.00;;
39050;SDS011;24805;55.852;37.644;2024-01-15T12:59:13;21.70;;;13.68;;
39050;SDS011;24805;55.852;37.644;2024-01-15T13:04:22;22.60;;;12.57;;
39050;SDS011;24805;55.852;37.644;2024-01-15T13:09:27;26.45;;;14.93;;
39050;SDS011;24805;55.852;37.644;2024-01-15T13:14:31;26.17;;;15.07;;
39050;SDS011;24805;55.852;37.644;2024-01-15T13:19:34;26.15;;;14.18;;
39050;SDS011;24805;55.852;37.644;2024-01-15T13:24:36;21.08;;;11.73;;
39050;SDS011;24805;55.852;37.644;2024-01-15T13:29:39;24.17;;;13.18;;
39050;SDS011;24805;55.852;37.644;2024-01-15T13:34:41;23.23;;;14.18;;
39050;SDS011;24805;55.852;37.644;2024-01-15T13:39:43;27.20;;;14.40;;
39050;SDS011;24805;55.852;37.644;2024-01-15T13:44:46;26.52;;;14.65;;
39050;SDS011;24805;55.852;37.644;2024-01-15T13:49:48;22.70;;;12.82;;
39050;SDS011;24805;55.852;37.644;2024-01-15T13:54:51;25.88;;;14.07;;
39050;SDS011;24805;55.852;37.644;2024-01-15T13:59:53;23.88;;;13.90;;
39050;SDS011;24805;55.852;37.644;2024-01-15T14:04:56;22.70;;;12.88;;
39050;SDS011;24805;55.852;37.644;2024-01-15T14:09:59;24.58;;;15.40;;
39050;SDS011;24805;55.852;37.644;2024-01-15T14:15:02;21.50;;;11.63;;
39050;SDS011;24805;55.852;37.644;2024-01-15T14:20:06;28.17;;;15.55;;
39050;SDS011;24805;55.852;37.644;2024-01-15T14:25:11;25.02;;;13.32;;
39050;SDS011;24805;55.852;37.644;2024-01-15T14:30:13;25.20;;;14.88;;
39050;SDS011;24805;55.852;37.644;2024-01-15T14:35:17;26.42;;;14.55;;
39050;SDS011;24805;55.852;37.644;2024-01-15T14:40:20;24.25;;;14.25;;
39050;SDS011;24805;55.852;37.644;2024-01-15T14:45:22;21.20;;;12.63;;
39050;SDS011;24805;55.852;37.644;2024-01-15T14:50:25;22.80;;;12.68;;
39050;SDS011;24805;55.852;37.644;2024-01-15T14:55:27;21.98;;;13.63;;
39050;SDS011;24805;55.852;37.644;2024-01-15T15:00:29;24.17;;;13.45;;
39050;SDS011;24805;55.852;37.644;2024-01-15T15:05:32;24.75;;;12.85;;
39050;SDS011;24805;55.852;37.644;2024-01-15T15:10:35;21.52;;;12.52;;
39050;SDS011;24805;55.852;37.644;2024-01-15T15:15:37;25.40;;;14.50;;
39050;SDS011;24805;55.852;37.644;2024-01-15T15:20:40;22.90;;;13.55;;
39050;SDS011;24805;55.852;37.644;2024-01-15T15:25:42;20.00;;;12.40;;
39050;SDS011;24805;55.852;37.644;2024-01-15T15:30:45;22.10;;;13.85;;
39050;SDS011;24805;55.852;37.644;2024-01-15T15:35:47;19.65;;;12.18;;
39050;SDS011;24805;55.852;37.644;2024-01-15T15:40:53;21.13;;;12.02;;
39050;SDS011;24805;55.852;37.644;2024-01-15T15:45:58;24.55;;;14.27;;
39050;SDS011;24805;55.852;37.644;2024-01-15T15:51:20;24.17;;;14.73;;
39050;SDS011;24805;55.852;37.644;2024-01-15T15:56:23;24.45;;;14.50;;
39050;SDS011;24805;55.852;37.644;2024-01-15T16:01:25;21.45;;;14.18;;
39050;SDS011;24805;55.852;37.644;2024-01-15T16:06:27;19.95;;;11.38;;
39050;SDS011;24805;55.852;37.644;2024-01-15T16:11:30;20.55;;;12.98;;
39050;SDS011;24805;55.852;37.644;2024-01-15T16:16:33;24.35;;;15.00;;
39050;SDS011;24805;55.852;37.644;2024-01-15T16:21:55;27.73;;;14.63;;
39050;SDS011;24805;55.852;37.644;2024-01-15T16:27:18;25.27;;;14.40;;
39050;SDS011;24805;55.852;37.644;2024-01-15T16:32:20;22.60;;;13.57;;
39050;SDS011;24805;55.852;37.644;2024-01-15T16:37:22;21.90;;;13.63;;
39050;SDS011;24805;55.852;37.644;2024-01-15T16:42:25;22.98;;;14.05;;
39050;SDS011;24805;55.852;37.644;2024-01-15T16:47:27;18.65;;;10.07;;
39050;SDS011;24805;55.852;37.644;2024-01-15T16:52:29;22.17;;;13.45;;
39050;SDS011;24805;55.852;37.644;2024-01-15T16:57:32;21.35;;;13.10;;
39050;SDS011;24805;55.852;37.644;2024-01-15T17:02:34;23.08;;;13.80;;
39050;SDS011;24805;55.852;37.644;2024-01-15T17:07:36;23.80;;;14.07;;
39050;SDS011;24805;55.852;37.644;2024-01-15T17:12:39;23.58;;;13.50;;
39050;SDS011;24805;55.852;37.644;2024-01-15T17:17:41;19.05;;;11.30;;
39050;SDS011;24805;55.852;37.644;2024-01-15T17:22:44;22.50;;;13.85;;
39050;SDS011;24805;55.852;37.644;2024-01-15T17:27:46;23.92;;;13.27;;
39050;SDS011;24805;55.852;37.644;2024-01-15T17:32:49;15.45;;;7.35;;
39050;SDS011;24805;55.852;37.644;2024-01-15T17:37:54;20.23;;;13.52;;
39050;SDS011;24805;55.852;37.644;2024-01-15T17:42:57;28.98;;;13.82;;
39050;SDS011;24805;55.852;37.644;2024-01-15T17:47:59;28.60;;;14.88;;
39050;SDS011;24805;55.852;37.644;2024-01-15T17:53:02;22.63;;;14.18;;
39050;SDS011;24805;55.852;37.644;2024-01-15T17:58:04;22.13;;;14.18;;
39050;SDS011;24805;55.852;37.644;2024-01-15T18:03:07;22.10;;;12.73;;
39050;SDS011;24805;55.852;37.644;2024-01-15T18:08:10;19.92;;;11.52;;
39050;SDS011;24805;55.852;37.644;2024-01-15T18:13:14;26.05;;;14.90;;
39050;SDS011;24805;55.852;37.644;2024-01-15T18:18:16;21.50;;;12.70;;
39050;SDS011;24805;55.852;37.644;2024-01-15T18:23:18;25.08;;;14.23;;
39050;SDS011;24805;55.852;37.644;2024-01-15T18:28:21;27.63;;;15.35;;
39050;SDS011;24805;55.852;37.644;2024-01-15T18:33:23;26.98;;;13.95;;
39050;SDS011;24805;55.852;37.644;2024-01-15T18:38:26;22.23;;;11.93;;
39050;SDS011;24805;55.852;37.644;2024-01-15T18:43:31;24.75;;;14.77;;
39050;SDS011;24805;55.852;37.644;2024-01-15T18:48:34;22.10;;;13.90;;
39050;SDS011;24805;55.852;37.644;2024-01-15T18:53:38;25.15;;;15.18;;
39050;SDS011;24805;55.852;37.644;2024-01-15T18:58:41;25.25;;;14.38;;
39050;SDS011;24805;55.852;37.644;2024-01-15T19:03:46;26.83;;;16.30;;
39050;SDS011;24805;55.852;37.644;2024-01-15T19:08:49;23.58;;;14.65;;
39050;SDS011;24805;55.852;37.644;2024-01-15T19:13:52;21.00;;;10.30;;
39050;SDS011;24805;55.852;37.644;2024-01-15T19:18:54;28.48;;;17.05;;
39050;SDS011;24805;55.852;37.644;2024-01-15T19:23:58;26.92;;;14.73;;
39050;SDS011;24805;55.852;37.644;2024-01-15T19:29:01;28.95;;;17.05;;
39050;SDS011;24805;55.852;37.644;2024-01-15T19:34:03;28.67;;;16.85;;
39050;SDS011;24805;55.852;37.644;2024-01-15T19:39:06;33.30;;;17.83;;
39050;SDS011;24805;55.852;37.644;2024-01-15T19:44:11;24.50;;;15.15;;
39050;SDS011;24805;55.852;37.644;2024-01-15T19:49:13;28.23;;;15.32;;
39050;SDS011;24805;55.852;37.644;2024-01-15T19:54:16;24.70;;;12.38;;
39050;SDS011;24805;55.852;37.644;2024-01-15T19:59:20;23.30;;;13.73;;
39050;SDS011;24805;55.852;37.644;2024-01-15T20:04:22;23.98;;;14.82;;
39050;SDS011;24805;55.852;37.644;2024-01-15T20:09:24;23.50;;;12.55;;
39050;SDS011;24805;55.852;37.644;2024-01-15T20:14:26;23.63;;;12.30;;
39050;SDS011;24805;55.852;37.644;2024-01-15T20:19:30;23.10;;;12.10;;
39050;SDS011;24805;55.852;37.644;2024-01-15T20:24:33;21.30;;;11.00;;
39050;SDS011;24805;55.852;37.644;2024-01-15T20:29:35;23.52;;;12.90;;
39050;SDS011;24805;55.852;37.644;2024-01-15T20:34:38;22.75;;;12.75;;
39050;SDS011;24805;55.852;37.644;2024-01-15T20:39:40;22.27;;;12.50;;
39050;SDS011;24805;55.852;37.644;2024-01-15T20:44:46;23.02;;;12.25;;
39050;SDS011;24805;55.852;37.644;2024-01-15T20:49:48;24.70;;;12.32;;
39050;SDS011;24805;55.852;37.644;2024-01-15T20:54:51;22.33;;;12.65;;
39050;SDS011;24805;55.852;37.644;2024-01-15T20:59:53;22.63;;;11.93;;
39050;SDS011;24805;55.852;37.644;2024-01-15T21:04:56;21.60;;;11.82;;
39050;SDS011;24805;55.852;37.644;2024-01-15T21:09:59;19.92;;;11.07;;
39050;SDS011;24805;55.852;37.644;2024-01-15T21:15:01;25.90;;;11.05;;
39050;SDS011;24805;55.852;37.644;2024-01-15T21:20:05;21.58;;;12.10;;
39050;SDS011;24805;55.852;37.644;2024-01-15T21:25:10;16.90;;;9.98;;
39050;SDS011;24805;55.852;37.644;2024-01-15T21:30:12;20.77;;;11.45;;
39050;SDS011;24805;55.852;37.644;2024-01-15T21:35:18;19.38;;;10.50;;
39050;SDS011;24805;55.852;37.644;2024-01-15T21:40:20;20.92;;;11.82;;
39050;SDS011;24805;55.852;37.644;2024-01-15T21:45:22;18.45;;;10.27;;
39050;SDS011;24805;55.852;37.644;2024-01-15T21:50:24;23.02;;;11.52;;
39050;SDS011;24805;55.852;37.644;2024-01-15T21:55:27;19.60;;;11.65;;
39050;SDS011;24805;55.852;37.644;2024-01-15T22:00:30;20.00;;;10.85;;
39050;SDS011;24805;55.852;37.644;2024-01-15T22:05:32;20.65;;;10.68;;
39050;SDS011;24805;55.852;37.644;2024-01-15T22:10:35;18.52;;;11.50;;
39050;SDS011;24805;55.852;37.644;2024-01-15T22:15:37;19.15;;;10.13;;
39050;SDS011;24805;55.852;37.644;2024-01-15T22:20:40;16.00;;;9.27;;
39050;SDS011;24805;55.852;37.644;2024-01-15T22:25:42;19.63;;;11.65;;
39050;SDS011;24805;55.852;37.644;2024-01-15T22:30:44;17.73;;;10.43;;
39050;SDS011;24805;55.852;37.644;2024-01-15T22:35:47;17.30;;;10.45;;
39050;SDS011;24805;55.852;37.644;2024-01-15T22:40:49;18.73;;;10.00;;
39050;SDS011;24805;55.852;37.644;2024-01-15T22:45:52;15.80;;;9.23;;
39050;SDS011;24805;55.852;37.644;2024-01-15T22:50:54;13.73;;;7.50;;
39050;SDS011;24805;55.852;37.644;2024-01-15T22:55:56;14.75;;;8.43;;
39050;SDS011;24805;55.852;37.644;2024-01-15T23:00:59;15.55;;;9.88;;
39050;SDS011;24805;55.852;37.644;2024-01-15T23:06:02;14.00;;;9.23;;
39050;SDS011;24805;55.852;37.644;2024-01-15T23:11:04;11.40;;;8.20;;
39050;SDS011;24805;55.852;37.644;2024-01-15T23:16:06;15.93;;;9.18;;
39050;SDS011;24805;55.852;37.644;2024-01-15T23:21:09;13.70;;;8.50;;
39050;SDS011;24805;55.852;37.644;2024-01-15T23:26:12;13.00;;;8.00;;
39050;SDS011;24805;55.852;37.644;2024-01-15T23:31:15;12.65;;;7.60;;
39050;SDS011;24805;55.852;37.644;2024-01-15T23:36:17;12.60;;;7.68;;
39050;SDS011;24805;55.852;37.644;2024-01-15T23:41:20;11.57;;;7.38;;
39050;SDS011;24805;55.852;37.644;2024-01-15T23:46:23;12.00;;;7.15;;
39050;SDS011;24805;55.852;37.644;2024-01-15T23:51:25;10.57;;;7.55;;
39050;SDS011;24805;55.852;37.644;2024-01-15T23:56:28;12.50;;;7.93;;
